Time;durP1;ratioP1;P1;durP2;ratioP2;P2;SDS_P1;SDS_P2;PMS_P1;PMS_P2;Temp;Humidity;BMP_temperature;BMP_pressure;BME280_temperature;BME280_humidity;BME280_pressure;Samples;Min_cycle;Max_cycle;Signal;HPM_P1;HPM_P2
2021/03/30 00:01:21;;;;;;;11.85;3.72;;;;;;;11.12;62.89;102165.31;5024406;28;20996;-80
2021/03/30 00:03:48;;;;;;;9.60;4.18;;;;;;;11.10;62.68;102167.13;5034021;28;20050;-78
2021/03/30 00:06:15;;;;;;;9.38;3.95;;;;;;;11.07;63.36;102159.34;5031508;28;20049;-79
2021/03/30 00:08:42;;;;;;;9.15;3.92;;;;;;;11.07;63.14;102161.97;5059078;28;20038;-78
2021/03/30 00:11:10;;;;;;;7.20;3.88;;;;;;;11.13;62.88;102166.19;5040462;28;20101;-79
2021/03/30 00:13:37;;;;;;;14.45;4.55;;;;;;;11.09;63.24;102161.94;5018754;28;20056;-80
2021/03/30 00:16:05;;;;;;;8.38;3.90;;;;;;;10.99;63.19;102163.19;5032933;28;20140;-79
2021/03/30 00:18:32;;;;;;;6.15;3.70;;;;;;;10.95;63.42;102158.94;5025130;28;20402;-81
2021/03/30 00:20:58;;;;;;;15.82;4.32;;;;;;;10.90;63.95;102167.88;5042581;28;20049;-81
2021/03/30 00:23:25;;;;;;;11.10;4.05;;;;;;;10.88;63.50;102168.81;5039292;28;20421;-80
2021/03/30 00:25:52;;;;;;;10.98;4.07;;;;;;;10.84;64.01;102172.47;5024045;28;20421;-80
2021/03/30 00:28:19;;;;;;;9.38;3.92;;;;;;;10.80;64.02;102174.34;5030621;28;20128;-79
2021/03/30 00:30:46;;;;;;;12.20;4.05;;;;;;;10.80;63.68;102166.44;5029404;28;20057;-81
2021/03/30 00:33:13;;;;;;;12.40;3.67;;;;;;;10.81;63.85;102165.56;5019995;28;20097;-81
2021/03/30 00:35:40;;;;;;;12.13;3.83;;;;;;;10.82;63.89;102164.66;5026017;28;20045;-78
2021/03/30 00:38:09;;;;;;;15.35;4.28;;;;;;;10.78;64.12;102160.41;5044230;28;20148;-80
2021/03/30 00:40:37;;;;;;;14.15;4.13;;;;;;;10.79;63.98;102158.63;5024066;28;20099;-81
2021/03/30 00:43:05;;;;;;;10.80;3.58;;;;;;;10.68;64.41;102168.69;5040928;28;20073;-79
2021/03/30 00:45:32;;;;;;;14.55;4.38;;;;;;;10.57;64.54;102169.03;5017185;28;20084;-78
2021/03/30 00:47:59;;;;;;;16.50;3.60;;;;;;;10.50;64.85;102167.53;5043817;28;20041;-78
2021/03/30 00:50:31;;;;;;;12.43;4.05;;;;;;;10.44;64.64;102163.31;5057420;28;20037;-79
2021/03/30 00:53:00;;;;;;;8.00;4.20;;;;;;;10.37;64.99;102167.09;5039908;28;20076;-80
2021/03/30 00:55:27;;;;;;;10.68;4.30;;;;;;;10.35;64.84;102156.59;5020509;28;20083;-78
2021/03/30 00:57:54;;;;;;;12.40;3.65;;;;;;;10.34;65.29;102175.06;5048311;28;20118;-80
2021/03/30 01:00:22;;;;;;;8.75;3.58;;;;;;;10.28;65.72;102159.50;5028022;28;20053;-80
2021/03/30 01:02:49;;;;;;;12.48;3.70;;;;;;;10.35;65.19;102171.53;5046666;28;20128;-80
2021/03/30 01:05:16;;;;;;;8.60;4.28;;;;;;;10.33;65.37;102168.09;5048809;28;20049;-79
2021/03/30 01:07:52;;;;;;;13.57;3.92;;;;;;;10.34;65.26;102169.81;5053706;28;20068;-80
2021/03/30 01:10:33;;;;;;;14.30;4.60;;;;;;;10.36;65.04;102165.38;5029283;28;20140;-79
2021/03/30 01:13:35;;;;;;;16.58;4.63;;;;;;;10.38;65.16;102167.03;5030927;28;20080;-81
2021/03/30 01:16:06;;;;;;;12.02;4.20;;;;;;;10.25;65.67;102167.47;5040335;28;20087;-78
2021/03/30 01:18:52;;;;;;;16.20;4.90;;;;;;;10.20;66.26;102166.75;5015849;28;20077;-80
2021/03/30 01:21:30;;;;;;;11.38;3.95;;;;;;;10.17;66.41;102170.31;5058453;28;20041;-78
2021/03/30 01:24:19;;;;;;;12.05;3.95;;;;;;;10.14;66.49;102170.44;5051717;28;20087;-79
2021/03/30 01:26:55;;;;;;;8.13;4.50;;;;;;;10.02;66.83;102176.94;5033229;28;20029;-79
2021/03/30 01:29:38;;;;;;;14.45;4.38;;;;;;;10.02;67.44;102178.72;5027430;28;20053;-79
2021/03/30 01:32:28;;;;;;;10.75;4.30;;;;;;;9.90;67.59;102179.97;5044531;28;20060;-80
2021/03/30 01:34:58;;;;;;;11.63;5.28;;;;;;;9.85;68.00;102174.84;5031381;28;20076;-78
2021/03/30 01:37:25;;;;;;;11.05;5.07;;;;;;;9.82;68.14;102171.47;5043039;23;20057;-68
2021/03/30 01:39:56;;;;;;;12.07;4.95;;;;;;;9.79;68.53;102180.31;4935089;28;20214;-70
2021/03/30 01:42:25;;;;;;;13.65;4.75;;;;;;;9.74;68.30;102171.69;4915785;28;20069;-69
2021/03/30 01:44:53;;;;;;;14.77;4.88;;;;;;;9.71;68.50;102174.41;4963929;28;20050;-69
2021/03/30 01:47:20;;;;;;;7.57;4.78;;;;;;;9.70;69.24;102174.47;4961261;28;20527;-68
2021/03/30 01:49:48;;;;;;;9.90;4.55;;;;;;;9.66;69.57;102176.31;4948047;28;20531;-68
2021/03/30 01:52:17;;;;;;;10.13;4.97;;;;;;;9.58;69.53;102187.06;4916246;28;20517;-68
2021/03/30 01:54:46;;;;;;;14.65;5.55;;;;;;;9.50;69.61;102175.03;4935457;28;20043;-68
2021/03/30 01:57:14;;;;;;;14.05;5.18;;;;;;;9.48;70.42;102182.13;4959315;28;20142;-69
2021/03/30 01:59:43;;;;;;;11.98;5.63;;;;;;;9.46;70.22;102178.69;4956738;28;20055;-69
2021/03/30 02:02:10;;;;;;;8.90;5.00;;;;;;;9.44;70.01;102177.88;4951236;28;20134;-67
2021/03/30 02:04:37;;;;;;;15.25;5.20;;;;;;;9.43;69.87;102176.16;4968987;28;20154;-68
2021/03/30 02:07:05;;;;;;;12.38;5.07;;;;;;;9.45;70.68;102177.81;4928769;29;20057;-69
2021/03/30 02:09:36;;;;;;;17.52;5.60;;;;;;;9.41;70.59;102172.69;4952511;28;20098;-69
2021/03/30 02:12:12;;;;;;;7.90;4.70;;;;;;;9.38;71.03;102179.78;4949499;28;20591;-70
2021/03/30 02:14:39;;;;;;;12.07;5.45;;;;;;;9.29;70.91;102164.28;4935146;28;20061;-69
2021/03/30 02:17:16;;;;;;;10.88;5.38;;;;;;;9.27;71.31;102173.09;4944116;28;20461;-69
2021/03/30 02:19:55;;;;;;;14.25;5.03;;;;;;;9.27;71.22;102175.72;4931985;28;20078;-68
2021/03/30 02:22:30;;;;;;;14.13;5.20;;;;;;;9.29;71.07;102176.56;4927116;28;20066;-70
2021/03/30 02:24:58;;;;;;;11.90;5.60;;;;;;;9.29;71.50;102177.41;4908802;28;20146;-68
2021/03/30 02:27:26;;;;;;;11.48;5.47;;;;;;;9.32;71.04;102174.72;4935431;28;20634;-70
2021/03/30 02:29:54;;;;;;;12.15;4.70;;;;;;;9.37;71.31;102185.09;4957767;28;20043;-68
2021/03/30 02:32:23;;;;;;;8.73;5.03;;;;;;;9.29;71.36;102187.06;4937780;28;20050;-69
2021/03/30 02:34:51;;;;;;;12.25;6.07;;;;;;;9.23;71.61;102184.59;4948407;28;20043;-68
2021/03/30 02:37:19;;;;;;;18.92;5.93;;;;;;;9.16;71.33;102183.06;4929726;28;20428;-68
2021/03/30 02:39:46;;;;;;;11.93;5.28;;;;;;;9.09;71.18;102182.34;4943569;28;20046;-68
2021/03/30 02:42:14;;;;;;;16.13;6.22;;;;;;;9.06;71.66;102188.56;4952643;28;20046;-67
2021/03/30 02:44:40;;;;;;;10.80;5.35;;;;;;;8.94;72.20;102188.91;4935203;28;20060;-68
2021/03/30 02:47:08;;;;;;;8.75;4.63;;;;;;;8.93;72.34;102192.44;4952317;28;20058;-70
2021/03/30 02:49:35;;;;;;;11.00;5.35;;;;;;;8.83;72.74;102193.59;4943924;28;20134;-68
2021/03/30 02:52:02;;;;;;;12.85;5.18;;;;;;;8.74;73.29;102201.72;4939539;28;20046;-69
2021/03/30 02:54:29;;;;;;;11.57;5.18;;;;;;;8.79;73.09;102199.81;4942244;28;20055;-69
2021/03/30 02:56:59;;;;;;;12.15;5.40;;;;;;;8.79;72.43;102197.19;4951867;28;20095;-69
2021/03/30 02:59:26;;;;;;;16.58;5.43;;;;;;;8.78;72.10;102205.97;4955584;28;20051;-68
2021/03/30 03:01:54;;;;;;;14.50;5.10;;;;;;;8.75;72.34;102206.91;4939066;28;20521;-69
2021/03/30 03:04:20;;;;;;;13.93;5.43;;;;;;;8.73;72.60;102208.69;4952146;28;20392;-68
2021/03/30 03:06:47;;;;;;;15.68;5.85;;;;;;;8.68;71.77;102204.47;4974537;28;20362;-69
2021/03/30 03:09:14;;;;;;;14.98;5.85;;;;;;;8.67;72.09;102203.63;4950243;28;20051;-68
2021/03/30 03:11:45;;;;;;;12.45;6.35;;;;;;;8.68;72.69;102204.47;4962555;28;20420;-70
2021/03/30 03:14:13;;;;;;;9.25;4.85;;;;;;;8.71;71.79;102207.91;4935297;28;20054;-70
2021/03/30 03:16:41;;;;;;;13.40;5.47;;;;;;;8.68;73.31;102201.84;4940018;28;20051;-68
2021/03/30 03:19:08;;;;;;;12.35;5.75;;;;;;;8.64;73.10;102206.31;4962203;28;20482;-69
2021/03/30 03:21:36;;;;;;;9.98;5.03;;;;;;;8.56;73.65;102203.06;4936723;28;20054;-69
2021/03/30 03:24:04;;;;;;;12.13;5.40;;;;;;;8.54;73.82;102207.47;4923982;29;20051;-69
2021/03/30 03:26:32;;;;;;;14.13;6.30;;;;;;;8.47;74.34;102211.16;4933463;28;20154;-69
2021/03/30 03:28:58;;;;;;;10.90;5.50;;;;;;;8.40;74.35;102204.31;4958187;28;20057;-68
2021/03/30 03:31:27;;;;;;;11.35;5.63;;;;;;;8.32;74.55;102202.69;4974378;28;20059;-69
2021/03/30 03:34:00;;;;;;;9.93;5.15;;;;;;;8.24;74.43;102207.28;4962472;28;20050;-68
2021/03/30 03:36:40;;;;;;;14.90;5.93;;;;;;;8.22;75.56;102210.84;4948881;28;20428;-69
2021/03/30 03:39:09;;;;;;;13.68;5.75;;;;;;;8.23;75.33;102208.16;4973051;28;20133;-69
2021/03/30 03:41:36;;;;;;;13.05;6.45;;;;;;;8.29;75.69;102210.66;4950361;28;20553;-70
2021/03/30 03:44:04;;;;;;;12.65;6.25;;;;;;;8.42;75.85;102213.00;4952529;28;20064;-69
2021/03/30 03:46:31;;;;;;;16.85;6.78;;;;;;;8.43;75.44;102218.25;4937152;28;20058;-67
2021/03/30 03:48:57;;;;;;;12.40;6.18;;;;;;;8.44;76.11;102217.34;4937527;28;20122;-69
2021/03/30 03:51:26;;;;;;;16.55;5.63;;;;;;;8.46;76.30;102214.66;4952307;28;20055;-68
2021/03/30 03:53:54;;;;;;;10.55;5.88;;;;;;;8.42;75.78;102218.25;4953309;28;20596;-70
2021/03/30 03:56:27;;;;;;;15.57;6.82;;;;;;;8.21;77.03;102217.84;4934947;28;20055;-69
2021/03/30 03:58:59;;;;;;;14.00;6.22;;;;;;;8.10;76.64;102219.84;4948985;28;20061;-70
2021/03/30 04:01:35;;;;;;;14.20;6.30;;;;;;;8.11;77.02;102213.72;4966313;28;20449;-68
2021/03/30 04:04:06;;;;;;;16.45;6.82;;;;;;;8.05;77.48;102222.56;4962893;28;20149;-73
2021/03/30 04:06:37;;;;;;;13.32;6.60;;;;;;;8.02;77.88;102227.06;4934021;28;20047;-71
2021/03/30 04:09:06;;;;;;;14.35;6.28;;;;;;;7.94;77.63;102227.22;4965809;28;20082;-68
2021/03/30 04:11:34;;;;;;;17.83;7.32;;;;;;;7.89;78.25;102225.59;4936340;28;20165;-69
2021/03/30 04:14:01;;;;;;;14.68;5.90;;;;;;;7.85;78.36;102230.03;4921651;28;20066;-68
2021/03/30 04:16:30;;;;;;;15.27;7.10;;;;;;;7.79;78.71;102231.06;4945428;28;21102;-68
2021/03/30 04:18:56;;;;;;;13.98;6.07;;;;;;;7.77;79.29;102224.09;4950507;28;20054;-70
2021/03/30 04:21:30;;;;;;;15.55;5.63;;;;;;;7.77;79.42;102218.84;4938932;28;20777;-70
2021/03/30 04:23:58;;;;;;;16.05;6.95;;;;;;;7.72;79.33;102221.56;4951662;28;20046;-69
2021/03/30 04:26:26;;;;;;;15.30;6.22;;;;;;;7.68;79.08;102226.91;4951461;28;20134;-70
2021/03/30 04:28:53;;;;;;;13.18;6.60;;;;;;;7.69;78.91;102231.25;4955377;28;20048;-69
2021/03/30 04:31:19;;;;;;;13.18;6.10;;;;;;;7.68;78.67;102222.53;4936525;28;20055;-68
2021/03/30 04:33:46;;;;;;;15.10;6.93;;;;;;;7.65;78.45;102229.59;4953782;28;20073;-69
2021/03/30 04:36:13;;;;;;;18.50;6.57;;;;;;;7.65;79.02;102234.84;4955446;28;20061;-69
2021/03/30 04:38:40;;;;;;;14.85;6.20;;;;;;;7.63;78.29;102226.16;4951590;28;20057;-68
2021/03/30 04:41:08;;;;;;;20.58;6.53;;;;;;;7.69;78.86;102232.13;4948665;28;20053;-70
2021/03/30 04:43:34;;;;;;;18.45;6.30;;;;;;;7.77;78.85;102226.72;4966523;28;20469;-68
2021/03/30 04:46:01;;;;;;;15.85;6.00;;;;;;;7.82;77.97;102233.59;4932202;28;20405;-70
2021/03/30 04:48:28;;;;;;;16.52;6.22;;;;;;;7.78;78.40;102239.78;4968626;28;20077;-69
2021/03/30 04:50:55;;;;;;;14.98;6.68;;;;;;;7.82;78.25;102230.97;4963669;28;20477;-68
2021/03/30 04:53:26;;;;;;;13.07;6.05;;;;;;;7.96;77.03;102232.41;4965909;28;20109;-69
2021/03/30 04:55:53;;;;;;;23.08;6.00;;;;;;;8.03;76.39;102234.00;4948834;28;20054;-69
2021/03/30 04:58:20;;;;;;;17.98;6.85;;;;;;;7.96;76.95;102235.03;4950386;28;20500;-68
2021/03/30 05:00:48;;;;;;;14.70;6.30;;;;;;;7.95;76.64;102246.44;4939289;28;20074;-68
2021/03/30 05:03:14;;;;;;;18.95;6.47;;;;;;;7.97;75.97;102232.41;4929093;28;20060;-70
2021/03/30 05:05:41;;;;;;;17.20;7.15;;;;;;;7.99;76.48;102242.84;4963822;28;20110;-69
2021/03/30 05:08:08;;;;;;;10.85;6.03;;;;;;;8.01;75.90;102241.91;4965235;28;20508;-69
2021/03/30 05:10:35;;;;;;;12.57;5.63;;;;;;;8.03;75.16;102250.63;4972601;28;20042;-69
2021/03/30 05:13:02;;;;;;;23.00;6.38;;;;;;;8.08;75.18;102251.38;4968382;28;20103;-69
2021/03/30 05:15:28;;;;;;;15.50;5.53;;;;;;;8.14;74.77;102255.59;4978606;28;20063;-69
2021/03/30 05:17:55;;;;;;;13.90;6.50;;;;;;;8.22;74.38;102264.16;4959490;28;20169;-69
2021/03/30 05:20:22;;;;;;;15.15;5.65;;;;;;;8.35;74.35;102256.88;4922665;28;20050;-71
2021/03/30 05:22:49;;;;;;;17.38;6.38;;;;;;;8.52;74.00;102254.75;4933701;28;20473;-69
2021/03/30 05:25:15;;;;;;;14.98;5.95;;;;;;;8.92;72.37;102253.75;4964726;28;20089;-69
2021/03/30 05:27:42;;;;;;;13.60;4.95;;;;;;;9.63;70.13;102250.88;4956546;28;20458;-69
2021/03/30 05:30:11;;;;;;;17.08;6.15;;;;;;;10.52;66.99;102258.72;4957223;28;20069;-70
2021/03/30 05:32:37;;;;;;;15.40;6.03;;;;;;;11.24;63.80;102263.31;4963879;28;20069;-70
2021/03/30 05:35:07;;;;;;;11.15;5.68;;;;;;;11.99;61.03;102264.06;4935653;28;20765;-69
2021/03/30 05:37:40;;;;;;;16.05;5.68;;;;;;;12.60;58.83;102256.31;4947325;28;20050;-70
2021/03/30 05:40:12;;;;;;;12.45;5.20;;;;;;;13.35;56.63;102258.41;4953060;28;20054;-70
2021/03/30 05:42:41;;;;;;;10.98;5.32;;;;;;;14.72;52.94;102251.97;4961714;28;20073;-69
2021/03/30 05:45:10;;;;;;;15.18;4.95;;;;;;;15.55;49.13;102259.16;4964060;28;20051;-69
2021/03/30 05:47:37;;;;;;;11.40;5.18;;;;;;;16.32;46.75;102256.63;4941887;28;20066;-69
2021/03/30 05:50:15;;;;;;;13.70;5.35;;;;;;;16.50;45.79;102260.03;4917639;28;20047;-69
2021/03/30 05:55:21;;;;;;;22.05;7.18;;;;;;;15.19;47.64;102262.81;4959770;28;20050;-70
2021/03/30 05:57:50;;;;;;;14.95;6.28;;;;;;;14.55;49.66;102269.59;4967306;28;20050;-70
2021/03/30 06:00:20;;;;;;;13.63;6.43;;;;;;;14.18;50.19;102267.81;4941718;28;20466;-69
2021/03/30 06:02:47;;;;;;;18.35;5.68;;;;;;;14.14;49.77;102269.78;4974715;23;20056;-72
2021/03/30 06:05:15;;;;;;;15.98;5.80;;;;;;;14.43;48.52;102276.31;4969533;28;20508;-70
2021/03/30 06:07:43;;;;;;;15.18;7.13;;;;;;;14.72;48.36;102262.56;4971169;28;20049;-71
2021/03/30 06:10:15;;;;;;;18.15;6.35;;;;;;;15.30;45.83;102272.84;4948735;28;20069;-70
2021/03/30 06:12:42;;;;;;;13.90;6.10;;;;;;;16.60;43.20;102273.66;4967721;28;20404;-71
2021/03/30 06:15:10;;;;;;;19.60;6.10;;;;;;;16.73;42.39;102279.16;4973005;28;20185;-71
2021/03/30 06:17:47;;;;;;;14.27;5.55;;;;;;;16.63;41.64;102281.47;4969864;28;20050;-72
2021/03/30 06:20:34;;;;;;;16.15;6.60;;;;;;;17.06;40.50;102277.13;4985206;28;20054;-71
2021/03/30 06:23:06;;;;;;;14.32;6.95;;;;;;;17.86;39.75;102286.44;4981505;28;20084;-72
2021/03/30 06:25:34;;;;;;;12.35;5.43;;;;;;;18.12;38.56;102289.25;4986267;28;20080;-71
2021/03/30 06:28:21;;;;;;;19.17;6.22;;;;;;;18.96;37.44;102289.91;4969891;28;20064;-71
2021/03/30 06:31:08;;;;;;;17.85;6.70;;;;;;;20.00;34.44;102292.44;4973275;28;20054;-72
2021/03/30 06:33:44;;;;;;;13.52;6.63;;;;;;;21.41;32.08;102288.06;4970267;28;20050;-71
2021/03/30 06:36:17;;;;;;;14.18;6.68;;;;;;;22.81;29.55;102282.94;4988275;28;20142;-71
2021/03/30 06:38:52;;;;;;;11.93;5.63;;;;;;;24.18;27.53;102288.00;4967841;28;20050;-73
2021/03/30 06:42:26;;;;;;;17.58;7.10;;;;;;;25.17;25.54;102286.94;4974686;28;20054;-71
2021/03/30 06:44:38;;;;;;;17.92;7.25;;;;;;;24.55;26.27;102298.16;4971716;28;20054;-71
2021/03/30 06:47:12;;;;;;;15.07;7.03;;;;;;;25.18;25.22;102287.78;4972361;28;20517;-72
2021/03/30 06:49:55;;;;;;;15.73;7.50;;;;;;;25.39;25.02;102290.25;4952136;28;20377;-71
2021/03/30 06:52:26;;;;;;;17.42;7.68;;;;;;;26.26;23.38;102292.56;4953825;28;20062;-71
2021/03/30 06:55:01;;;;;;;16.33;6.53;;;;;;;25.03;23.96;102295.41;4991925;28;20058;-72
2021/03/30 06:57:46;;;;;;;16.50;7.22;;;;;;;23.12;26.72;102297.31;4971529;28;20054;-72
2021/03/30 07:00:13;;;;;;;13.53;7.40;;;;;;;24.19;25.46;102306.72;4980837;28;20058;-71
2021/03/30 07:02:49;;;;;;;20.27;7.68;;;;;;;25.27;24.02;102307.63;4990129;28;20133;-71
2021/03/30 07:05:27;;;;;;;20.85;7.68;;;;;;;25.94;22.95;102306.53;4989295;28;20397;-72
2021/03/30 07:07:56;;;;;;;12.50;6.70;;;;;;;26.51;22.78;102309.88;4969632;28;20088;-71
2021/03/30 07:10:35;;;;;;;14.50;6.55;;;;;;;26.68;21.99;102300.91;4971430;28;20137;-72
2021/03/30 07:13:03;;;;;;;17.73;7.97;;;;;;;27.50;21.22;102302.38;4996206;28;20109;-72
2021/03/30 07:15:30;;;;;;;16.77;7.88;;;;;;;27.48;21.13;102306.25;4974650;28;20046;-70
2021/03/30 07:18:25;;;;;;;15.88;8.07;;;;;;;27.95;20.11;102300.41;4976250;28;20042;-70
2021/03/30 07:21:02;;;;;;;22.00;8.63;;;;;;;27.66;20.40;102303.47;4985714;28;20060;-72
2021/03/30 07:23:31;;;;;;;14.55;6.60;;;;;;;27.71;20.24;102296.56;4986536;28;20051;-71
2021/03/30 07:26:21;;;;;;;20.35;7.90;;;;;;;27.06;21.25;102309.66;4979266;28;20057;-72
2021/03/30 07:28:53;;;;;;;19.92;7.97;;;;;;;26.73;20.86;102304.00;4971419;28;20058;-74
2021/03/30 07:31:28;;;;;;;16.80;8.88;;;;;;;25.72;22.55;102302.34;4996950;28;20591;-73
2021/03/30 07:34:00;;;;;;;22.48;9.65;;;;;;;26.26;21.59;102301.50;4974178;28;20094;-74
2021/03/30 07:36:29;;;;;;;21.83;8.45;;;;;;;24.82;23.18;102305.53;4980731;28;20166;-72
2021/03/30 07:39:00;;;;;;;17.23;9.13;;;;;;;24.84;23.19;102306.22;4969171;28;20054;-73
2021/03/30 07:41:27;;;;;;;17.00;8.82;;;;;;;25.40;22.86;102308.16;4974029;28;20370;-72
2021/03/30 07:43:59;;;;;;;16.42;7.78;;;;;;;26.06;22.30;102305.31;4973736;28;20162;-71
2021/03/30 07:46:26;;;;;;;16.13;9.30;;;;;;;27.71;21.19;102310.09;4956145;28;20153;-70
2021/03/30 07:48:53;;;;;;;15.55;8.27;;;;;;;28.51;19.90;102312.44;4988937;28;20042;-71
2021/03/30 07:51:22;;;;;;;15.23;9.25;;;;;;;28.15;20.02;102309.09;4974145;28;20050;-71
2021/03/30 07:53:54;;;;;;;14.73;8.75;;;;;;;28.69;19.75;102313.13;4987920;28;20141;-72
2021/03/30 07:56:23;;;;;;;20.13;8.65;;;;;;;29.22;18.89;102305.47;4957174;28;20054;-70
2021/03/30 07:58:52;;;;;;;25.58;10.48;;;;;;;28.62;19.40;102314.78;4966824;28;20042;-71
2021/03/30 08:01:21;;;;;;;20.35;9.90;;;;;;;26.97;21.60;102306.06;4974581;28;20329;-71
2021/03/30 08:03:50;;;;;;;19.23;10.63;;;;;;;27.48;20.90;102311.69;4974309;28;20062;-71
2021/03/30 08:06:47;;;;;;;20.65;10.38;;;;;;;27.22;21.27;102306.28;4978051;28;20134;-72
2021/03/30 08:09:17;;;;;;;23.27;11.00;;;;;;;26.56;21.86;102312.09;4977886;28;20062;-71
2021/03/30 08:11:48;;;;;;;26.92;11.43;;;;;;;26.34;22.20;102316.91;4990159;28;20145;-71
2021/03/30 08:14:18;;;;;;;18.50;10.32;;;;;;;26.10;22.84;102322.91;4989880;28;20058;-70
2021/03/30 08:17:06;;;;;;;20.83;11.05;;;;;;;24.57;24.61;102315.88;4985307;28;20576;-71
2021/03/30 08:19:32;;;;;;;19.17;10.88;;;;;;;25.19;24.81;102316.44;4989261;28;20413;-72
2021/03/30 08:22:07;;;;;;;21.35;11.52;;;;;;;25.97;23.61;102320.56;4971104;28;20050;-70
2021/03/30 08:24:45;;;;;;;22.25;10.30;;;;;;;25.98;23.23;102316.88;4989273;28;20062;-72
2021/03/30 08:27:30;;;;;;;41.83;12.13;;;;;;;25.78;23.41;102325.22;4990050;28;20069;-70
2021/03/30 08:30:12;;;;;;;19.00;11.30;;;;;;;26.71;22.91;102319.53;4972031;28;20133;-72
2021/03/30 08:32:44;;;;;;;23.63;10.98;;;;;;;28.19;21.55;102316.75;4977229;28;20070;-70
2021/03/30 08:35:13;;;;;;;19.98;11.43;;;;;;;25.94;24.09;102318.19;4988266;28;20074;-71
2021/03/30 08:37:41;;;;;;;21.17;12.27;;;;;;;28.23;21.92;102325.34;4976402;28;20068;-71
2021/03/30 08:40:35;;;;;;;19.80;11.25;;;;;;;29.20;20.67;102316.50;4987905;28;20053;-72
2021/03/30 08:43:14;;;;;;;28.83;11.98;;;;;;;27.57;22.15;102316.13;4985120;28;20054;-71
2021/03/30 08:46:05;;;;;;;20.70;12.63;;;;;;;26.37;23.61;102323.88;4993453;28;20254;-73
2021/03/30 08:48:40;;;;;;;24.83;10.45;;;;;;;24.95;24.97;102327.66;4973631;28;20393;-72
2021/03/30 08:51:08;;;;;;;17.20;10.23;;;;;;;23.35;27.56;102324.91;4987162;28;20133;-72
2021/03/30 08:53:35;;;;;;;26.48;10.48;;;;;;;21.03;31.07;102331.19;4985077;28;20053;-71
2021/03/30 08:56:09;;;;;;;20.23;10.38;;;;;;;20.37;32.22;102336.09;4988004;28;20076;-72
2021/03/30 08:58:48;;;;;;;22.48;9.93;;;;;;;19.31;34.31;102336.50;4989491;28;20055;-70
2021/03/30 09:01:15;;;;;;;23.13;11.63;;;;;;;19.49;34.78;102341.41;4969265;28;20058;-70
2021/03/30 09:03:43;;;;;;;24.48;11.20;;;;;;;18.93;35.99;102340.81;4989273;28;20082;-73
2021/03/30 09:06:33;;;;;;;23.75;11.30;;;;;;;19.33;35.68;102338.09;4955747;28;20385;-72
2021/03/30 09:09:00;;;;;;;26.50;11.10;;;;;;;18.90;37.21;102337.47;4985560;28;20089;-72
2021/03/30 09:11:28;;;;;;;19.80;12.27;;;;;;;18.66;37.48;102346.13;4995531;28;20058;-72
2021/03/30 09:14:00;;;;;;;25.13;11.52;;;;;;;18.86;36.99;102339.50;4990715;28;20133;-72
2021/03/30 09:16:27;;;;;;;25.52;11.63;;;;;;;19.17;36.54;102342.78;4991647;28;20061;-73
2021/03/30 09:19:28;;;;;;;27.95;11.98;;;;;;;18.93;36.24;102338.13;4992104;28;20512;-72
2021/03/30 09:22:03;;;;;;;24.08;10.57;;;;;;;19.10;37.01;102347.69;4985520;28;20398;-71
2021/03/30 09:24:41;;;;;;;;;;;;;;;19.29;36.86;102339.28;4971838;28;20058;-70
2021/03/30 09:27:07;;;;;;;20.48;10.70;;;;;;;19.07;37.67;102345.22;4979988;28;20021;-73
2021/03/30 09:29:35;;;;;;;17.90;9.82;;;;;;;18.30;39.27;102346.72;4958602;28;20050;-72
2021/03/30 09:32:05;;;;;;;20.73;10.27;;;;;;;18.36;40.61;102345.44;4961447;28;20055;-70
2021/03/30 09:34:32;;;;;;;23.02;10.02;;;;;;;18.28;40.89;102345.09;4991402;28;20792;-71
2021/03/30 09:37:00;;;;;;;23.63;10.43;;;;;;;18.93;40.03;102332.81;4970855;28;20055;-73
2021/03/30 09:39:28;;;;;;;21.80;9.30;;;;;;;19.47;39.18;102339.81;4975837;28;20057;-73
2021/03/30 09:41:56;;;;;;;21.70;9.82;;;;;;;19.45;39.22;102334.59;4990334;28;20053;-71
2021/03/30 09:44:24;;;;;;;21.25;9.52;;;;;;;19.64;39.55;102342.22;4984400;28;20062;-72
2021/03/30 09:47:34;;;;;;;22.27;9.25;;;;;;;19.80;39.00;102330.44;4960375;28;20634;-75
2021/03/30 09:50:03;;;;;;;19.60;9.77;;;;;;;19.54;39.50;102326.88;4960606;28;20130;-71
2021/03/30 09:52:31;;;;;;;26.15;10.10;;;;;;;19.51;39.97;102327.97;4957454;28;20050;-72
2021/03/30 09:54:58;;;;;;;17.35;10.02;;;;;;;19.40;39.83;102323.34;4955036;28;20435;-71
2021/03/30 09:57:28;;;;;;;17.17;9.70;;;;;;;19.65;39.46;102332.38;4972001;28;20137;-72
2021/03/30 09:59:55;;;;;;;17.40;9.68;;;;;;;19.38;39.38;102329.78;4992645;28;20057;-70
2021/03/30 10:02:33;;;;;;;22.35;10.57;;;;;;;19.48;39.68;102330.84;4987204;28;20054;-70
2021/03/30 10:05:01;;;;;;;15.27;9.55;;;;;;;19.84;39.62;102327.44;4955832;28;20053;-70
2021/03/30 10:07:36;;;;;;;22.98;10.52;;;;;;;19.64;39.96;102328.00;4990339;28;20647;-71
2021/03/30 10:10:11;;;;;;;22.17;9.32;;;;;;;19.85;39.82;102323.78;4973242;28;20137;-71
2021/03/30 10:13:04;;;;;;;23.58;10.20;;;;;;;18.85;42.18;102324.44;4977753;28;21250;-71
2021/03/30 10:15:39;;;;;;;24.13;9.88;;;;;;;19.27;41.71;102327.81;4956737;28;20050;-72
2021/03/30 10:18:09;;;;;;;22.02;10.23;;;;;;;19.58;41.23;102323.88;4971283;28;20417;-72
2021/03/30 10:20:46;;;;;;;16.98;9.85;;;;;;;19.62;41.05;102324.56;4988136;28;20050;-71
2021/03/30 10:23:18;;;;;;;19.45;9.82;;;;;;;19.14;42.29;102316.31;4969801;28;20062;-72
2021/03/30 10:25:46;;;;;;;24.67;10.73;;;;;;;19.23;42.30;102311.19;4970560;28;20051;-70
2021/03/30 10:28:23;;;;;;;17.42;8.98;;;;;;;19.31;42.24;102321.31;4954088;28;20081;-71
2021/03/30 10:30:55;;;;;;;18.48;9.60;;;;;;;19.60;41.77;102319.34;4983491;28;20043;-72
2021/03/30 10:33:38;;;;;;;19.02;8.68;;;;;;;19.60;42.14;102307.78;4969214;28;20077;-70
2021/03/30 10:36:09;;;;;;;15.93;8.30;;;;;;;19.28;42.08;102310.88;4985679;28;20073;-68
2021/03/30 10:38:37;;;;;;;14.50;8.18;;;;;;;19.42;42.06;102307.25;4955342;28;20053;-72
2021/03/30 10:41:06;;;;;;;23.38;9.38;;;;;;;19.46;41.68;102309.59;4984154;28;20058;-73
2021/03/30 10:43:33;;;;;;;18.35;8.88;;;;;;;19.66;41.30;102305.53;4984562;28;20145;-71
2021/03/30 10:46:00;;;;;;;21.17;9.65;;;;;;;19.79;40.92;102302.00;4985195;28;20046;-72
2021/03/30 10:48:27;;;;;;;26.27;10.52;;;;;;;19.67;41.04;102296.56;4986878;28;20137;-71
2021/03/30 10:50:54;;;;;;;25.65;9.02;;;;;;;19.77;40.68;102290.56;4967179;28;20055;-72
2021/03/30 10:53:22;;;;;;;30.67;9.80;;;;;;;19.72;40.09;102290.88;4985113;28;20064;-70
2021/03/30 10:55:50;;;;;;;20.67;10.07;;;;;;;19.60;40.75;102287.28;4991506;28;20054;-71
2021/03/30 10:58:18;;;;;;;22.95;9.73;;;;;;;19.65;40.78;102284.28;4973328;28;20054;-71
2021/03/30 11:00:44;;;;;;;24.92;10.30;;;;;;;19.85;40.29;102288.19;4974238;28;20042;-73
2021/03/30 11:03:26;;;;;;;24.42;11.10;;;;;;;19.78;40.72;102286.94;4968351;28;20145;-73
2021/03/30 11:05:53;;;;;;;22.85;10.73;;;;;;;19.75;40.72;102287.16;4986917;28;20065;-71
2021/03/30 11:08:20;;;;;;;27.63;10.57;;;;;;;19.56;41.03;102277.75;4970709;28;20050;-71
2021/03/30 11:14:59;;;;;;;17.25;7.65;;;;;;;19.92;40.25;102265.41;4978836;28;20049;-72
2021/03/30 11:17:26;;;;;;;20.75;8.90;;;;;;;20.14;39.99;102265.56;4987331;28;20505;-72
2021/03/30 11:19:54;;;;;;;19.83;9.73;;;;;;;20.11;39.76;102267.59;4983904;28;20058;-72
2021/03/30 11:22:28;;;;;;;16.05;8.23;;;;;;;20.04;39.80;102269.00;4954753;28;20058;-72
2021/03/30 11:29:11;;;;;;;16.23;8.63;;;;;;;19.24;41.23;102261.31;4978127;28;20060;-71
2021/03/30 11:35:53;;;;;;;14.60;7.43;;;;;;;19.80;39.96;102258.28;4984007;28;20045;-70
2021/03/30 11:38:20;;;;;;;21.67;8.40;;;;;;;19.59;40.10;102252.63;4966091;28;20053;-70
2021/03/30 11:40:46;;;;;;;21.00;9.48;;;;;;;19.28;41.28;102251.28;4953307;28;20592;-71
2021/03/30 11:43:13;;;;;;;22.15;9.93;;;;;;;19.20;41.76;102259.81;4970391;28;20117;-72
2021/03/30 11:45:40;;;;;;;20.23;10.68;;;;;;;19.42;41.26;102248.47;4987516;28;20058;-72
2021/03/30 11:48:07;;;;;;;20.75;9.45;;;;;;;19.54;40.92;102244.06;4987666;28;20400;-71
2021/03/30 11:50:35;;;;;;;16.27;9.25;;;;;;;19.67;40.94;102239.59;4973429;28;20527;-72
2021/03/30 11:53:02;;;;;;;19.10;9.23;;;;;;;19.84;40.85;102233.88;4971629;28;20050;-69